Time;durP1;ratioP1;P1;durP2;ratioP2;P2;SDS_P1;SDS_P2;PMS_P1;PMS_P2;Temp;Humidity;BMP_temperature;BMP_pressure;BME280_temperature;BME280_humidity;BME280_pressure;Samples;Min_cycle;Max_cycle;Signal;HPM_P1;HPM_P2
2023/05/11 00:00:10;;;;;;;13.32;10.43;;;15.30;99.90;;;;;;4177154;28;20056;-67
2023/05/11 00:02:12;;;;;;;12.45;10.27;;;15.30;99.90;;;;;;4175420;28;20432;-66
2023/05/11 00:04:12;;;;;;;12.75;10.32;;;15.40;99.90;;;;;;4180579;28;20029;-65
2023/05/11 00:06:13;;;;;;;12.00;10.52;;;15.40;99.90;;;;;;4174513;28;20083;-66
2023/05/11 00:08:15;;;;;;;12.93;10.13;;;15.40;99.90;;;;;;4174381;28;20037;-66
2023/05/11 00:10:15;;;;;;;11.57;9.73;;;15.30;99.90;;;;;;4174574;28;20033;-66
2023/05/11 00:12:16;;;;;;;11.45;9.48;;;15.40;99.90;;;;;;4174642;28;20339;-67
2023/05/11 00:14:16;;;;;;;13.50;10.25;;;15.40;99.90;;;;;;4175434;28;20112;-65
2023/05/11 00:16:17;;;;;;;12.75;10.77;;;15.40;99.90;;;;;;4174804;28;20064;-66
2023/05/11 00:18:17;;;;;;;13.63;11.45;;;15.40;99.90;;;;;;4172342;28;20041;-67
2023/05/11 00:20:20;;;;;;;13.82;11.13;;;15.40;99.90;;;;;;4171731;28;20037;-66
2023/05/11 00:22:20;;;;;;;14.05;10.65;;;15.40;99.90;;;;;;4184412;28;20391;-66
2023/05/11 00:24:21;;;;;;;12.43;10.75;;;15.40;99.90;;;;;;4179470;28;20063;-66
2023/05/11 00:26:22;;;;;;;14.25;11.50;;;15.50;99.90;;;;;;4176677;28;20035;-67
2023/05/11 00:28:22;;;;;;;13.60;11.10;;;15.50;99.90;;;;;;4174424;28;21054;-66
2023/05/11 00:30:23;;;;;;;15.57;10.70;;;15.50;99.90;;;;;;4179574;28;20033;-66
2023/05/11 00:32:23;;;;;;;14.90;11.75;;;15.50;99.90;;;;;;4177785;28;20028;-67
2023/05/11 00:34:24;;;;;;;15.80;12.27;;;15.50;99.90;;;;;;4174746;28;20021;-67
2023/05/11 00:36:25;;;;;;;16.20;12.07;;;15.50;99.90;;;;;;4176341;28;20384;-65
2023/05/11 00:38:26;;;;;;;15.88;12.52;;;15.40;99.90;;;;;;4172879;28;20036;-66
2023/05/11 00:40:26;;;;;;;16.17;12.63;;;15.40;99.90;;;;;;4176065;28;20033;-67
2023/05/11 00:42:27;;;;;;;13.27;11.32;;;15.40;99.90;;;;;;4176952;28;20055;-66
2023/05/11 00:44:28;;;;;;;13.70;11.00;;;15.30;99.90;;;;;;4175628;28;20036;-66
2023/05/11 00:46:29;;;;;;;13.63;11.05;;;15.30;99.90;;;;;;4178890;28;20033;-65
2023/05/11 00:48:30;;;;;;;15.40;11.90;;;15.30;99.90;;;;;;4179671;28;20033;-66
2023/05/11 00:50:30;;;;;;;12.38;10.50;;;15.30;99.90;;;;;;4175862;28;20114;-66
2023/05/11 00:52:31;;;;;;;14.65;11.93;;;15.30;99.90;;;;;;4172295;28;20123;-66
2023/05/11 00:54:32;;;;;;;13.60;11.32;;;15.30;99.90;;;;;;4174690;28;20033;-66
2023/05/11 00:56:32;;;;;;;19.35;13.98;;;15.30;99.90;;;;;;4172575;28;20032;-67
2023/05/11 00:58:34;;;;;;;17.25;13.45;;;15.20;99.90;;;;;;4173199;28;20488;-66
2023/05/11 01:00:35;;;;;;;14.25;12.02;;;15.20;99.90;;;;;;4171028;28;20037;-66
2023/05/11 01:02:36;;;;;;;17.40;12.70;;;15.20;99.90;;;;;;4181655;28;20380;-67
2023/05/11 01:04:37;;;;;;;15.57;11.27;;;15.10;99.90;;;;;;4173678;28;20507;-65
2023/05/11 01:06:58;;;;;;;13.60;11.23;;;15.10;99.90;;;;;;4177197;28;20041;-66
2023/05/11 01:09:14;;;;;;;14.15;11.63;;;15.10;99.90;;;;;;4176363;28;20055;-66
2023/05/11 01:11:24;;;;;;;14.38;10.98;;;15.00;99.90;;;;;;4172121;28;20040;-68
2023/05/11 01:13:41;;;;;;;13.30;10.13;;;15.00;99.90;;;;;;4183218;28;20174;-68
2023/05/11 01:15:55;;;;;;;13.57;10.93;;;15.00;99.90;;;;;;4186582;28;20189;-66
2023/05/11 01:18:17;;;;;;;11.52;9.32;;;15.00;99.90;;;;;;4179165;28;20041;-68
2023/05/11 01:20:23;;;;;;;11.73;9.17;;;15.00;99.90;;;;;;4177113;28;20047;-67
2023/05/11 01:22:30;;;;;;;11.50;9.43;;;15.00;99.90;;;;;;4181371;28;20035;-67
2023/05/11 01:24:47;;;;;;;12.35;10.10;;;15.00;99.90;;;;;;4177455;28;20053;-67
2023/05/11 01:27:27;;;;;;;12.43;10.20;;;15.00;99.90;;;;;;4175239;28;20033;-66
2023/05/11 01:30:09;;;;;;;13.60;11.00;;;15.00;99.90;;;;;;4172304;28;20422;-66
2023/05/11 01:32:20;;;;;;;12.65;9.73;;;15.00;99.90;;;;;;4173746;28;20048;-67
2023/05/11 01:34:29;;;;;;;14.32;11.35;;;15.00;99.90;;;;;;4171221;28;20025;-67
2023/05/11 01:36:42;;;;;;;13.07;11.10;;;15.00;99.90;;;;;;4178433;28;20116;-67
2023/05/11 01:38:46;;;;;;;13.07;10.82;;;15.00;99.90;;;;;;4170764;28;20045;-66
2023/05/11 01:40:53;;;;;;;11.98;9.88;;;14.90;99.90;;;;;;4176814;28;20033;-67
2023/05/11 01:43:01;;;;;;;12.43;10.60;;;14.90;99.90;;;;;;4182625;28;20024;-66
2023/05/11 01:45:05;;;;;;;10.73;8.90;;;14.90;99.90;;;;;;4185765;28;20028;-67
2023/05/11 01:47:07;;;;;;;11.82;9.38;;;14.90;99.90;;;;;;4173415;28;20049;-66
2023/05/11 01:49:09;;;;;;;11.68;9.60;;;14.90;99.90;;;;;;4176606;28;20447;-67
2023/05/11 01:51:11;;;;;;;13.27;10.02;;;15.00;99.90;;;;;;4177421;28;20033;-67
2023/05/11 01:53:14;;;;;;;14.10;11.05;;;14.90;99.90;;;;;;4176462;28;20036;-66
2023/05/11 01:55:18;;;;;;;13.35;10.60;;;14.90;99.90;;;;;;4171077;28;20176;-66
2023/05/11 01:57:20;;;;;;;11.02;8.63;;;14.90;99.90;;;;;;4173423;28;20041;-66
2023/05/11 01:59:21;;;;;;;11.27;9.60;;;15.00;99.90;;;;;;4176896;28;20056;-66
2023/05/11 02:01:23;;;;;;;13.05;10.35;;;15.00;99.90;;;;;;4181661;28;20037;-66
2023/05/11 02:03:24;;;;;;;14.18;10.20;;;14.90;99.90;;;;;;4172814;28;20057;-66
2023/05/11 02:05:27;;;;;;;11.00;8.80;;;14.90;99.90;;;;;;4173126;28;20064;-66
2023/05/11 02:07:29;;;;;;;10.73;8.32;;;14.90;99.90;;;;;;4175461;28;20049;-67
2023/05/11 02:09:33;;;;;;;10.63;8.38;;;14.90;99.90;;;;;;4174335;28;20384;-66
2023/05/11 02:11:36;;;;;;;10.77;8.98;;;14.90;99.90;;;;;;4178378;28;20503;-66
2023/05/11 02:13:40;;;;;;;11.35;8.52;;;14.90;99.90;;;;;;4188704;28;20024;-66
2023/05/11 02:15:41;;;;;;;14.43;10.25;;;14.90;99.90;;;;;;4186447;28;20025;-67
2023/05/11 02:17:42;;;;;;;11.35;9.57;;;14.90;99.90;;;;;;4176452;28;20052;-66
2023/05/11 02:19:44;;;;;;;11.60;9.40;;;14.90;99.90;;;;;;4184727;28;20111;-66
2023/05/11 02:21:46;;;;;;;11.57;9.45;;;14.90;99.90;;;;;;4175765;28;20041;-66
2023/05/11 02:23:48;;;;;;;;;;;14.90;99.90;;;;;;4187895;28;20108;-66
2023/05/11 02:25:51;;;;;;;12.15;9.57;;;14.90;99.90;;;;;;4180448;28;19920;-66
2023/05/11 02:27:52;;;;;;;10.35;9.02;;;14.90;99.90;;;;;;4182733;28;20052;-66
2023/05/11 02:29:52;;;;;;;12.45;9.48;;;14.90;99.90;;;;;;4176062;28;20507;-67
2023/05/11 02:32:03;;;;;;;11.93;9.80;;;14.80;99.90;;;;;;4178406;28;20041;-67
2023/05/11 02:34:17;;;;;;;10.13;7.90;;;14.80;99.90;;;;;;4177162;28;20021;-66
2023/05/11 02:36:22;;;;;;;12.02;9.20;;;14.80;99.90;;;;;;4173445;28;20550;-67
2023/05/11 02:38:32;;;;;;;11.57;9.20;;;14.80;99.90;;;;;;4174217;28;20163;-66
2023/05/11 02:40:35;;;;;;;10.50;8.15;;;14.80;99.90;;;;;;4174692;28;20098;-67
2023/05/11 02:42:39;;;;;;;10.00;8.23;;;14.80;99.90;;;;;;4182721;28;20039;-67
2023/05/11 02:44:49;;;;;;;10.48;8.27;;;14.90;99.90;;;;;;4178442;28;20033;-66
2023/05/11 02:46:53;;;;;;;10.48;8.60;;;14.90;99.90;;;;;;4172068;28;20059;-66
2023/05/11 02:48:56;;;;;;;11.63;9.43;;;14.90;99.90;;;;;;4175898;28;20433;-66
2023/05/11 02:51:00;;;;;;;16.05;12.13;;;14.90;99.90;;;;;;4174747;28;20037;-67
2023/05/11 02:53:04;;;;;;;12.80;10.35;;;14.90;99.90;;;;;;4178430;28;20120;-65
2023/05/11 02:55:06;;;;;;;14.75;11.30;;;14.90;99.90;;;;;;4173754;28;20238;-68
2023/05/11 02:57:07;;;;;;;14.35;10.80;;;14.90;99.90;;;;;;4178079;28;20049;-67
2023/05/11 02:59:08;;;;;;;11.38;9.43;;;14.90;99.90;;;;;;4179921;28;20502;-66
2023/05/11 03:01:09;;;;;;;12.65;10.13;;;14.90;99.90;;;;;;4181245;28;20060;-66
2023/05/11 03:03:09;;;;;;;13.13;9.15;;;14.90;99.90;;;;;;4172834;28;20036;-66
2023/05/11 03:05:10;;;;;;;14.98;11.40;;;15.00;99.90;;;;;;4175269;28;20029;-68
2023/05/11 03:07:10;;;;;;;15.77;11.80;;;14.90;99.90;;;;;;4181520;28;20047;-66
2023/05/11 03:09:11;;;;;;;19.45;14.07;;;14.90;99.90;;;;;;4180550;28;20041;-66
2023/05/11 03:11:13;;;;;;;15.77;11.98;;;14.90;99.90;;;;;;4175701;28;20100;-66
2023/05/11 03:13:15;;;;;;;14.93;11.07;;;14.90;99.90;;;;;;4173911;28;20033;-66
2023/05/11 03:15:16;;;;;;;13.88;10.85;;;14.90;99.90;;;;;;4179423;28;20033;-66
2023/05/11 03:17:19;;;;;;;15.48;11.63;;;14.80;99.90;;;;;;4180782;28;20037;-67
2023/05/11 03:19:21;;;;;;;19.95;13.63;;;14.80;99.90;;;;;;4176221;28;20033;-66
2023/05/11 03:21:23;;;;;;;15.65;12.18;;;14.80;99.90;;;;;;4168067;28;20067;-65
2023/05/11 03:23:24;;;;;;;15.52;12.65;;;14.80;99.90;;;;;;4174017;28;20032;-66
2023/05/11 03:25:25;;;;;;;15.60;12.52;;;14.80;99.90;;;;;;4181511;28;20032;-66
2023/05/11 03:27:27;;;;;;;17.40;13.75;;;14.90;99.90;;;;;;4172901;28;20091;-66
2023/05/11 03:29:28;;;;;;;15.80;12.65;;;14.90;99.90;;;;;;4184006;28;20028;-66
2023/05/11 03:31:29;;;;;;;16.02;12.68;;;14.90;99.90;;;;;;4178921;28;20049;-66
2023/05/11 03:33:30;;;;;;;14.93;12.45;;;14.90;99.90;;;;;;4172498;28;20021;-66
2023/05/11 03:35:33;;;;;;;16.42;13.02;;;15.00;99.90;;;;;;4180075;28;20044;-66
2023/05/11 03:37:37;;;;;;;16.00;12.55;;;15.00;99.90;;;;;;4177682;28;20044;-66
2023/05/11 03:39:38;;;;;;;19.00;14.18;;;15.00;99.90;;;;;;4178413;28;20403;-66
2023/05/11 03:41:40;;;;;;;18.20;13.77;;;15.00;99.90;;;;;;4180085;28;20037;-65
2023/05/11 03:43:42;;;;;;;17.65;13.10;;;14.90;99.90;;;;;;4179769;28;20040;-66
2023/05/11 03:45:44;;;;;;;20.08;14.93;;;14.90;99.90;;;;;;4177837;28;20407;-65
2023/05/11 03:47:46;;;;;;;21.90;15.02;;;14.90;99.90;;;;;;4180602;28;20041;-65
2023/05/11 03:49:47;;;;;;;;;;;14.90;99.90;;;;;;4173709;28;20032;-69
2023/05/11 03:51:48;;;;;;;16.90;12.65;;;14.90;99.90;;;;;;4175694;28;19924;-67
2023/05/11 03:53:49;;;;;;;20.33;15.23;;;14.90;99.90;;;;;;4176680;28;20655;-67
2023/05/11 03:55:51;;;;;;;21.27;15.65;;;14.90;99.90;;;;;;4173516;28;20039;-67
2023/05/11 03:57:52;;;;;;;20.52;16.05;;;14.80;99.90;;;;;;4180402;28;20052;-66
2023/05/11 03:59:53;;;;;;;18.80;14.50;;;14.70;99.90;;;;;;4177266;28;20408;-66
2023/05/11 04:01:54;;;;;;;20.00;15.43;;;14.70;99.90;;;;;;4175167;28;20076;-66
2023/05/11 04:03:55;;;;;;;22.90;15.80;;;14.70;99.90;;;;;;4181450;28;21377;-66
2023/05/11 04:05:55;;;;;;;23.10;16.25;;;14.60;99.90;;;;;;4173264;28;20400;-66
2023/05/11 04:07:56;;;;;;;20.88;15.40;;;14.60;99.90;;;;;;4180533;28;20032;-66
2023/05/11 04:09:56;;;;;;;25.50;17.48;;;14.60;99.90;;;;;;4173699;28;20040;-65
2023/05/11 04:11:57;;;;;;;21.88;16.08;;;14.60;99.90;;;;;;4173341;28;20555;-66
2023/05/11 04:13:58;;;;;;;18.05;14.30;;;14.60;99.90;;;;;;4174712;28;21124;-68
2023/05/11 04:15:58;;;;;;;20.25;15.38;;;14.60;99.90;;;;;;4170536;28;20030;-66
2023/05/11 04:17:59;;;;;;;20.42;14.95;;;14.60;99.90;;;;;;4171564;28;20048;-66
2023/05/11 04:19:59;;;;;;;19.25;14.23;;;14.60;99.90;;;;;;4175936;28;20040;-66
2023/05/11 04:22:00;;;;;;;22.23;15.98;;;14.60;99.90;;;;;;4175897;28;20488;-66
2023/05/11 04:24:01;;;;;;;18.40;14.50;;;14.60;99.90;;;;;;4171765;28;20036;-66
2023/05/11 04:26:02;;;;;;;22.13;16.63;;;14.60;99.90;;;;;;4173146;28;20037;-67
2023/05/11 04:28:02;;;;;;;21.60;16.58;;;14.60;99.90;;;;;;4177885;28;20109;-65
2023/05/11 04:30:03;;;;;;;20.83;15.15;;;14.60;99.90;;;;;;4174809;28;20029;-67
2023/05/11 04:32:04;;;;;;;20.80;15.93;;;14.60;99.90;;;;;;4182760;28;20037;-66
2023/05/11 04:34:08;;;;;;;24.00;17.58;;;14.60;99.90;;;;;;4182536;28;20051;-66
2023/05/11 04:36:09;;;;;;;22.23;16.65;;;14.60;99.90;;;;;;4181622;28;20067;-66
2023/05/11 04:38:09;;;;;;;20.80;16.55;;;14.60;99.90;;;;;;4177921;28;20041;-66
2023/05/11 04:40:10;;;;;;;19.15;14.10;;;14.60;99.90;;;;;;4172600;28;20116;-67
2023/05/11 04:42:11;;;;;;;18.77;14.68;;;14.60;99.90;;;;;;4180719;28;20037;-66
2023/05/11 04:44:11;;;;;;;17.70;13.68;;;14.60;99.90;;;;;;4174347;28;20044;-66
2023/05/11 04:46:12;;;;;;;16.50;13.20;;;14.70;99.90;;;;;;4172901;28;20029;-64
2023/05/11 04:48:12;;;;;;;25.60;17.33;;;14.70;99.90;;;;;;4172354;28;20404;-66
2023/05/11 04:50:13;;;;;;;19.98;15.15;;;14.70;99.90;;;;;;4182820;28;20094;-68
2023/05/11 04:52:14;;;;;;;19.38;14.18;;;14.70;99.90;;;;;;4179763;28;20041;-67
2023/05/11 04:54:14;;;;;;;21.63;15.32;;;14.70;99.90;;;;;;4186298;28;20045;-68
2023/05/11 04:56:15;;;;;;;20.55;15.35;;;14.70;99.90;;;;;;4177026;28;20037;-67
2023/05/11 04:58:16;;;;;;;23.50;16.30;;;14.80;99.90;;;;;;4179923;28;20123;-66
2023/05/11 05:00:17;;;;;;;23.45;17.42;;;14.80;99.90;;;;;;4176563;28;20072;-68
2023/05/11 05:02:17;;;;;;;24.02;17.67;;;14.70;99.90;;;;;;4177045;28;20052;-67
2023/05/11 05:04:18;;;;;;;22.30;17.05;;;14.80;99.90;;;;;;4178181;28;20041;-67
2023/05/11 05:06:18;;;;;;;23.58;16.90;;;14.70;99.90;;;;;;4179513;28;20045;-68
2023/05/11 05:08:20;;;;;;;25.45;17.77;;;14.80;99.90;;;;;;4183929;28;20067;-67
2023/05/11 05:10:21;;;;;;;25.70;18.77;;;14.70;99.90;;;;;;4177413;28;20071;-67
2023/05/11 05:12:21;;;;;;;26.25;16.77;;;14.70;99.90;;;;;;4181975;28;20492;-68
2023/05/11 05:14:22;;;;;;;27.08;17.58;;;14.80;99.90;;;;;;4181138;28;20033;-68
2023/05/11 05:16:22;;;;;;;23.13;17.02;;;14.80;99.90;;;;;;4176312;28;20459;-68
2023/05/11 05:18:23;;;;;;;26.30;18.40;;;14.80;99.90;;;;;;4177975;28;20158;-67
2023/05/11 05:20:24;;;;;;;28.48;19.80;;;14.80;99.90;;;;;;4179748;28;20116;-68
2023/05/11 05:22:25;;;;;;;25.83;18.88;;;14.80;99.90;;;;;;4177268;28;20044;-67
2023/05/11 05:24:25;;;;;;;26.02;18.38;;;14.70;99.90;;;;;;4179322;28;20091;-66
2023/05/11 05:26:26;;;;;;;23.98;17.83;;;14.80;99.90;;;;;;4174660;28;20041;-68
2023/05/11 05:28:26;;;;;;;25.35;17.70;;;14.70;99.90;;;;;;4177338;28;20155;-65
2023/05/11 05:30:27;;;;;;;24.13;17.33;;;14.80;99.90;;;;;;4171261;28;20068;-65
2023/05/11 05:32:28;;;;;;;22.73;17.42;;;14.80;99.90;;;;;;4171685;28;20061;-66
2023/05/11 05:34:28;;;;;;;27.30;18.55;;;14.80;99.90;;;;;;4176698;28;20079;-66
2023/05/11 05:36:29;;;;;;;28.63;19.75;;;14.90;99.90;;;;;;4170284;28;20399;-69
2023/05/11 05:38:30;;;;;;;27.73;17.13;;;14.90;99.90;;;;;;4179217;28;20060;-68
2023/05/11 05:40:30;;;;;;;30.38;21.02;;;14.80;99.90;;;;;;4173641;28;20750;-68
2023/05/11 05:42:31;;;;;;;33.80;21.88;;;14.80;99.90;;;;;;4177460;28;20091;-68
2023/05/11 05:44:32;;;;;;;35.13;19.67;;;14.80;99.90;;;;;;4176355;28;20612;-68
2023/05/11 05:46:32;;;;;;;25.00;17.77;;;14.80;99.90;;;;;;4175817;28;20042;-68
2023/05/11 05:48:33;;;;;;;26.60;19.08;;;14.80;99.90;;;;;;4174916;28;20032;-67
2023/05/11 05:50:33;;;;;;;26.58;18.88;;;14.80;99.90;;;;;;4177559;28;20037;-67
2023/05/11 05:52:35;;;;;;;27.05;19.30;;;14.80;99.90;;;;;;4174211;28;20068;-68
2023/05/11 05:54:35;;;;;;;27.88;19.45;;;14.80;99.90;;;;;;4178929;28;20068;-68
2023/05/11 05:56:36;;;;;;;28.55;20.80;;;14.80;99.90;;;;;;4176901;28;20032;-66
2023/05/11 05:58:36;;;;;;;31.90;21.55;;;14.80;99.90;;;;;;4181161;28;20082;-67
2023/05/11 06:00:37;;;;;;;29.63;20.20;;;14.80;99.90;;;;;;4174620;28;20048;-68
2023/05/11 06:02:38;;;;;;;29.88;19.27;;;14.80;99.90;;;;;;4179120;28;20527;-67
2023/05/11 06:04:38;;;;;;;30.55;20.73;;;14.80;99.90;;;;;;4174762;28;20045;-68
2023/05/11 06:06:39;;;;;;;28.88;20.33;;;14.80;99.90;;;;;;4177532;28;20040;-67
2023/05/11 06:08:40;;;;;;;26.75;18.70;;;14.90;99.90;;;;;;4179585;28;20055;-68
2023/05/11 06:10:40;;;;;;;26.98;18.30;;;14.90;99.90;;;;;;4175857;28;20047;-64
2023/05/11 06:12:41;;;;;;;30.30;20.00;;;14.90;99.90;;;;;;4172930;28;20037;-67
2023/05/11 06:14:41;;;;;;;28.08;19.33;;;14.90;99.90;;;;;;4177382;28;20032;-67
2023/05/11 06:16:42;;;;;;;29.88;20.17;;;14.90;99.90;;;;;;4175631;28;20068;-68
2023/05/11 06:18:42;;;;;;;36.35;23.73;;;14.90;99.90;;;;;;4174234;28;20044;-68
2023/05/11 06:20:43;;;;;;;28.98;19.77;;;14.90;99.90;;;;;;4176129;28;20483;-68
2023/05/11 06:22:43;;;;;;;28.15;18.52;;;15.00;99.90;;;;;;4178689;28;20502;-67
2023/05/11 06:24:44;;;;;;;24.65;17.67;;;15.00;99.90;;;;;;4173673;28;20551;-67
2023/05/11 06:26:44;;;;;;;24.95;17.92;;;15.00;99.90;;;;;;4174812;28;20033;-68
2023/05/11 06:28:45;;;;;;;25.42;18.25;;;15.00;99.90;;;;;;4176081;28;20529;-67
2023/05/11 06:30:46;;;;;;;28.67;21.13;;;15.10;99.90;;;;;;4167261;28;20033;-67
2023/05/11 06:32:46;;;;;;;30.35;20.85;;;15.00;99.90;;;;;;4176933;28;20075;-67
2023/05/11 06:34:47;;;;;;;28.42;19.88;;;15.10;99.90;;;;;;4174381;28;20033;-67
2023/05/11 06:36:48;;;;;;;29.38;20.30;;;15.10;99.90;;;;;;4170955;28;20098;-67
2023/05/11 06:38:48;;;;;;;27.92;19.80;;;15.10;99.90;;;;;;4177721;28;20468;-68
2023/05/11 06:40:52;;;;;;;30.42;20.65;;;15.10;99.90;;;;;;4173782;28;20029;-67
2023/05/11 06:42:53;;;;;;;35.97;23.58;;;15.20;99.90;;;;;;4172370;28;20033;-68
2023/05/11 06:44:53;;;;;;;28.95;20.65;;;15.20;99.90;;;;;;4176167;28;20041;-68
2023/05/11 06:46:54;;;;;;;34.00;21.75;;;15.10;99.90;;;;;;4173749;28;20056;-68
2023/05/11 06:48:54;;;;;;;30.35;20.88;;;15.20;99.90;;;;;;4180575;28;20853;-68
2023/05/11 06:50:55;;;;;;;28.75;19.70;;;15.20;99.90;;;;;;4176624;28;20510;-68
2023/05/11 06:52:56;;;;;;;28.45;19.80;;;15.20;99.90;;;;;;4181915;28;20174;-68
2023/05/11 06:54:56;;;;;;;36.20;21.98;;;15.20;99.90;;;;;;4178843;28;20068;-67
2023/05/11 06:56:57;;;;;;;27.77;19.48;;;15.30;99.90;;;;;;4171952;28;20044;-67
2023/05/11 06:58:57;;;;;;;23.90;17.27;;;15.40;99.90;;;;;;4177934;28;20146;-67
2023/05/11 07:00:58;;;;;;;30.50;21.05;;;15.40;99.90;;;;;;4170136;28;20041;-67
2023/05/11 07:02:58;;;;;;;32.70;21.70;;;15.50;99.90;;;;;;4174006;28;20017;-67
2023/05/11 07:04:59;;;;;;;36.65;24.17;;;15.60;99.90;;;;;;4175279;28;20486;-67
2023/05/11 07:07:00;;;;;;;31.70;20.13;;;15.60;99.90;;;;;;4173866;28;20041;-68
2023/05/11 07:09:02;;;;;;;30.73;21.42;;;15.70;99.90;;;;;;4175033;28;20059;-69
2023/05/11 07:11:02;;;;;;;37.75;24.40;;;15.80;99.90;;;;;;4172582;28;20119;-68
2023/05/11 07:13:04;;;;;;;38.95;24.55;;;15.80;99.90;;;;;;4178210;28;20044;-68
2023/05/11 07:15:05;;;;;;;39.90;24.73;;;15.80;99.90;;;;;;4174383;28;20025;-70
2023/05/11 07:17:06;;;;;;;35.85;24.02;;;15.80;99.90;;;;;;4176228;28;20041;-68
2023/05/11 07:19:09;;;;;;;33.97;22.23;;;15.90;99.90;;;;;;4172052;28;20080;-68
2023/05/11 07:21:10;;;;;;;36.42;24.33;;;15.90;99.90;;;;;;4172462;28;20492;-68
2023/05/11 07:23:10;;;;;;;32.15;22.45;;;15.90;99.90;;;;;;4177825;28;20028;-68
2023/05/11 07:25:11;;;;;;;30.38;21.55;;;16.00;99.90;;;;;;4178376;28;20181;-69
2023/05/11 07:27:12;;;;;;;33.92;22.23;;;16.00;99.90;;;;;;4172874;28;20044;-68
2023/05/11 07:29:12;;;;;;;31.80;21.75;;;16.10;99.90;;;;;;4174211;28;20032;-67
2023/05/11 07:31:13;;;;;;;37.90;24.65;;;16.20;99.90;;;;;;4172380;28;20029;-68
2023/05/11 07:33:13;;;;;;;33.75;22.73;;;16.20;99.90;;;;;;4176863;28;20037;-68
2023/05/11 07:35:14;;;;;;;33.10;23.27;;;16.30;99.90;;;;;;4171191;28;20033;-68
2023/05/11 07:37:14;;;;;;;41.05;26.60;;;16.30;99.90;;;;;;4173580;28;20048;-67
2023/05/11 07:39:15;;;;;;;31.90;20.67;;;16.40;99.90;;;;;;4171069;28;20028;-68
2023/05/11 07:41:17;;;;;;;38.00;25.30;;;16.40;99.90;;;;;;4167645;28;20480;-68
2023/05/11 07:43:18;;;;;;;40.42;26.58;;;16.50;99.90;;;;;;4172958;28;20029;-68
2023/05/11 07:45:19;;;;;;;33.58;23.00;;;16.60;99.90;;;;;;4167938;28;20376;-67
2023/05/11 07:47:19;;;;;;;32.78;21.27;;;16.60;99.90;;;;;;4171406;28;20472;-69
2023/05/11 07:49:20;;;;;;;36.03;23.23;;;16.70;99.90;;;;;;4179729;28;20028;-69
2023/05/11 07:51:20;;;;;;;37.03;23.48;;;16.80;99.90;;;;;;4173194;28;20541;-68
2023/05/11 07:53:21;;;;;;;35.35;23.52;;;16.90;99.90;;;;;;4180212;28;20040;-68
2023/05/11 07:55:25;;;;;;;32.15;21.42;;;17.00;99.90;;;;;;4173265;28;20033;-68
2023/05/11 07:57:26;;;;;;;32.35;23.00;;;17.00;99.90;;;;;;4176030;28;20029;-68
2023/05/11 07:59:26;;;;;;;31.85;22.27;;;17.00;99.90;;;;;;4170225;28;20112;-69
2023/05/11 08:01:27;;;;;;;30.30;20.98;;;17.00;99.90;;;;;;4168179;28;20037;-69
2023/05/11 08:03:27;;;;;;;30.45;20.30;;;17.00;99.90;;;;;;4176572;28;20040;-68
2023/05/11 08:05:29;;;;;;;28.08;19.83;;;17.00;99.90;;;;;;4175249;28;20036;-69
2023/05/11 08:07:30;;;;;;;33.30;20.92;;;17.00;99.90;;;;;;4175470;28;20560;-67
2023/05/11 08:09:31;;;;;;;29.13;19.60;;;17.00;99.90;;;;;;4170824;28;20118;-68
2023/05/11 08:11:31;;;;;;;28.58;20.13;;;17.00;99.90;;;;;;4172890;28;20029;-69
2023/05/11 08:13:32;;;;;;;27.70;19.38;;;17.00;99.90;;;;;;4171026;28;20071;-69
2023/05/11 08:15:33;;;;;;;28.17;18.98;;;16.90;99.90;;;;;;4170573;28;20087;-69
2023/05/11 08:17:34;;;;;;;27.50;18.73;;;16.90;99.90;;;;;;4173157;28;20137;-69
2023/05/11 08:19:35;;;;;;;27.63;19.05;;;16.90;99.90;;;;;;4174342;28;20110;-69
2023/05/11 08:21:35;;;;;;;29.90;20.83;;;16.90;99.90;;;;;;4173990;28;20060;-68
2023/05/11 08:23:36;;;;;;;30.33;19.80;;;16.80;99.90;;;;;;4172801;28;20040;-69
2023/05/11 08:25:36;;;;;;;28.90;19.88;;;16.80;99.90;;;;;;4174737;28;20823;-69
2023/05/11 08:27:37;;;;;;;29.17;19.33;;;16.70;99.90;;;;;;4179075;28;20175;-69
2023/05/11 08:29:38;;;;;;;28.05;20.08;;;16.60;99.90;;;;;;4177431;28;20029;-68
2023/05/11 08:31:39;;;;;;;28.45;18.77;;;16.60;99.90;;;;;;4174147;28;20043;-69
2023/05/11 08:33:39;;;;;;;27.27;17.88;;;16.60;99.90;;;;;;4175750;28;20045;-68
2023/05/11 08:35:40;;;;;;;24.20;17.17;;;16.50;99.90;;;;;;4176944;28;20040;-68
2023/05/11 08:37:40;;;;;;;22.27;16.30;;;16.40;99.90;;;;;;4178657;28;20078;-69
2023/05/11 08:39:41;;;;;;;24.42;17.55;;;16.40;99.90;;;;;;4174688;28;20021;-68
2023/05/11 08:41:43;;;;;;;25.20;17.73;;;16.40;99.90;;;;;;4173982;28;20049;-69
2023/05/11 08:43:45;;;;;;;24.57;16.77;;;16.30;99.90;;;;;;4174339;28;20083;-68
2023/05/11 08:45:49;;;;;;;21.33;16.27;;;16.40;99.90;;;;;;4175514;28;20324;-68
2023/05/11 08:47:51;;;;;;;27.05;16.90;;;16.40;99.90;;;;;;4176667;28;20025;-69
2023/05/11 08:49:52;;;;;;;29.33;19.20;;;16.40;99.90;;;;;;4175802;28;20044;-67
2023/05/11 08:51:53;;;;;;;27.08;17.65;;;16.40;99.90;;;;;;4175662;28;20033;-70
2023/05/11 08:53:56;;;;;;;25.35;16.08;;;16.40;99.90;;;;;;4173741;28;20049;-68
2023/05/11 08:55:57;;;;;;;;;;;16.40;99.90;;;;;;4177753;28;20414;-69
2023/05/11 08:58:00;;;;;;;22.63;14.88;;;16.40;99.90;;;;;;4174638;28;20676;-69
2023/05/11 09:00:03;;;;;;;22.42;15.90;;;16.50;99.90;;;;;;4178381;28;20123;-68
2023/05/11 09:02:05;;;;;;;24.42;16.73;;;16.50;99.90;;;;;;4172413;28;20036;-69
2023/05/11 09:04:07;;;;;;;28.08;19.00;;;16.50;99.90;;;;;;4178989;28;20492;-69
2023/05/11 09:06:09;;;;;;;29.55;19.50;;;16.50;99.90;;;;;;4174396;28;21343;-68
2023/05/11 09:08:12;;;;;;;26.98;19.58;;;16.50;99.90;;;;;;4170465;28;20049;-68
2023/05/11 09:10:12;;;;;;;;;;;16.50;99.90;;;;;;4171519;28;20025;-67
2023/05/11 09:12:14;;;;;;;23.70;16.35;;;16.50;99.90;;;;;;4176641;28;20382;-68
2023/05/11 09:14:14;;;;;;;24.67;17.30;;;16.60;99.90;;;;;;4178982;28;20045;-68
2023/05/11 09:16:15;;;;;;;28.73;18.02;;;16.60;99.90;;;;;;4177523;28;20109;-68
2023/05/11 09:18:16;;;;;;;22.30;16.23;;;16.60;99.90;;;;;;4179852;28;20051;-67
2023/05/11 09:20:27;;;;;;;26.58;17.63;;;16.60;99.90;;;;;;4176818;28;20040;-69
2023/05/11 09:22:50;;;;;;;23.40;17.10;;;16.70;99.90;;;;;;4172361;28;20127;-69
2023/05/11 09:24:51;;;;;;;22.33;15.25;;;16.70;99.90;;;;;;4177632;28;20090;-68
2023/05/11 09:27:08;;;;;;;30.75;20.13;;;16.70;99.90;;;;;;4176481;28;20064;-68
2023/05/11 09:29:09;;;;;;;23.23;16.23;;;16.70;99.90;;;;;;4174778;28;20208;-68
2023/05/11 09:31:09;;;;;;;23.75;17.08;;;16.70;99.90;;;;;;4176732;28;20537;-68
2023/05/11 09:33:10;;;;;;;24.73;17.73;;;16.70;99.90;;;;;;4174819;28;20037;-67
2023/05/11 09:35:30;;;;;;;28.67;18.65;;;16.70;99.90;;;;;;4171364;28;20111;-70
2023/05/11 09:37:31;;;;;;;29.42;18.20;;;16.70;99.90;;;;;;4174602;28;20062;-68
2023/05/11 09:39:35;;;;;;;25.55;17.58;;;16.70;99.90;;;;;;4174510;28;20033;-68
2023/05/11 09:41:36;;;;;;;28.00;17.85;;;16.70;99.90;;;;;;4175952;28;20133;-68
2023/05/11 09:43:37;;;;;;;28.58;18.05;;;16.70;99.90;;;;;;4176265;28;20072;-69
2023/05/11 09:45:40;;;;;;;22.95;15.25;;;16.70;99.90;;;;;;4172824;28;20151;-68
2023/05/11 09:47:41;;;;;;;29.23;17.95;;;16.60;99.90;;;;;;4174067;28;21300;-68
2023/05/11 09:49:43;;;;;;;26.65;17.10;;;16.70;99.90;;;;;;4177851;28;20037;-69
2023/05/11 09:51:43;;;;;;;22.95;15.07;;;16.70;99.90;;;;;;4176229;28;20036;-68
2023/05/11 09:53:44;;;;;;;25.70;16.08;;;16.70;99.90;;;;;;4177259;28;22421;-68
2023/05/11 09:55:50;;;;;;;21.05;15.13;;;16.80;99.90;;;;;;4172544;28;20037;-68
2023/05/11 09:57:57;;;;;;;25.08;15.93;;;16.80;99.90;;;;;;4175942;28;20044;-69
2023/05/11 09:59:58;;;;;;;29.75;17.25;;;16.90;99.90;;;;;;4170964;28;20052;-69
2023/05/11 10:02:17;;;;;;;24.53;16.50;;;16.90;99.90;;;;;;4173764;28;20076;-68
2023/05/11 10:04:27;;;;;;;31.60;19.73;;;16.90;99.90;;;;;;4177149;28;20282;-69
2023/05/11 10:06:49;;;;;;;33.65;20.33;;;17.00;99.90;;;;;;4173513;28;20051;-69
2023/05/11 10:08:49;;;;;;;32.17;21.02;;;16.90;99.90;;;;;;4173846;28;20033;-69
2023/05/11 10:10:50;;;;;;;26.80;17.48;;;16.90;99.90;;;;;;4176031;28;20037;-69
2023/05/11 10:12:51;;;;;;;34.08;22.13;;;16.90;99.90;;;;;;4174620;28;20514;-67
2023/05/11 10:14:55;;;;;;;35.90;23.35;;;16.90;99.90;;;;;;4174435;28;20492;-69
2023/05/11 10:16:57;;;;;;;32.55;21.30;;;16.90;99.90;;;;;;4176181;28;20162;-70
2023/05/11 10:18:58;;;;;;;32.90;20.13;;;17.00;99.90;;;;;;4172420;28;20067;-70
2023/05/11 10:20:59;;;;;;;37.30;22.60;;;17.00;99.90;;;;;;4172454;28;20759;-69